sensor_id;sensor_type;location;lat;lon;timestamp;pressure;altitude;pressure_sealevel;temperature;humidity
15884;BME280;8040;50.254;10.960;2023-04-21T00:00:43;97919.19;;;9.87;74.50
15884;BME280;8040;50.254;10.960;2023-04-21T00:03:08;97943.88;;;9.99;74.39
15884;BME280;8040;50.254;10.960;2023-04-21T00:05:34;97913.97;;;9.90;74.10
15884;BME280;8040;50.254;10.960;2023-04-21T00:07:59;97892.13;;;9.87;74.13
15884;BME280;8040;50.254;10.960;2023-04-21T00:10:25;97919.41;;;10.04;73.81
15884;BME280;8040;50.254;10.960;2023-04-21T00:12:50;97930.16;;;10.09;73.93
15884;BME280;8040;50.254;10.960;2023-04-21T00:15:15;97916.78;;;9.99;74.13
15884;BME280;8040;50.254;10.960;2023-04-21T00:17:41;97933.34;;;10.11;74.20
15884;BME280;8040;50.254;10.960;2023-04-21T00:20:07;97929.84;;;9.97;74.28
15884;BME280;8040;50.254;10.960;2023-04-21T00:22:34;97921.56;;;10.02;73.82
15884;BME280;8040;50.254;10.960;2023-04-21T00:24:59;97926.72;;;10.03;73.82
15884;BME280;8040;50.254;10.960;2023-04-21T00:27:25;97919.97;;;10.01;73.92
15884;BME280;8040;50.254;10.960;2023-04-21T00:29:50;97941.00;;;10.09;74.02
15884;BME280;8040;50.254;10.960;2023-04-21T00:32:15;97919.28;;;9.95;73.80
15884;BME280;8040;50.254;10.960;2023-04-21T00:34:41;97915.09;;;9.89;73.97
15884;BME280;8040;50.254;10.960;2023-04-21T00:37:06;97924.41;;;9.97;74.13
15884;BME280;8040;50.254;10.960;2023-04-21T00:39:32;97932.66;;;10.05;74.25
15884;BME280;8040;50.254;10.960;2023-04-21T00:41:57;97933.75;;;10.04;74.13
15884;BME280;8040;50.254;10.960;2023-04-21T00:44:22;97880.78;;;9.85;73.52
15884;BME280;8040;50.254;10.960;2023-04-21T00:46:49;97912.75;;;9.96;73.62
15884;BME280;8040;50.254;10.960;2023-04-21T00:49:15;97936.06;;;10.11;73.76
15884;BME280;8040;50.254;10.960;2023-04-21T00:51:40;97876.97;;;9.72;73.94
15884;BME280;8040;50.254;10.960;2023-04-21T00:54:07;97908.16;;;9.97;73.92
15884;BME280;8040;50.254;10.960;2023-04-21T00:56:34;97927.00;;;10.15;73.49
15884;BME280;8040;50.254;10.960;2023-04-21T00:59:00;97871.66;;;9.81;73.45
15884;BME280;8040;50.254;10.960;2023-04-21T01:01:30;97915.19;;;10.11;73.25
15884;BME280;8040;50.254;10.960;2023-04-21T01:03:57;97865.13;;;9.82;73.23
15884;BME280;8040;50.254;10.960;2023-04-21T01:06:24;97901.63;;;9.98;73.16
15884;BME280;8040;50.254;10.960;2023-04-21T01:08:51;97940.44;;;10.34;72.65
15884;BME280;8040;50.254;10.960;2023-04-21T01:11:16;97935.03;;;10.20;72.99
15884;BME280;8040;50.254;10.960;2023-04-21T01:13:42;97938.84;;;10.33;72.77
15884;BME280;8040;50.254;10.960;2023-04-21T01:16:07;97937.81;;;10.42;72.81
15884;BME280;8040;50.254;10.960;2023-04-21T01:18:33;97935.81;;;10.34;72.40
15884;BME280;8040;50.254;10.960;2023-04-21T01:21:00;97862.41;;;9.95;72.35
15884;BME280;8040;50.254;10.960;2023-04-21T01:23:26;97911.56;;;10.16;72.54
15884;BME280;8040;50.254;10.960;2023-04-21T01:25:52;97918.56;;;10.30;72.25
15884;BME280;8040;50.254;10.960;2023-04-21T01:28:24;97906.03;;;10.21;71.71
15884;BME280;8040;50.254;10.960;2023-04-21T01:30:51;97893.72;;;10.15;72.14
15884;BME280;8040;50.254;10.960;2023-04-21T01:33:17;97894.09;;;10.22;72.20
15884;BME280;8040;50.254;10.960;2023-04-21T01:35:43;97880.53;;;10.22;71.92
15884;BME280;8040;50.254;10.960;2023-04-21T01:38:09;97913.53;;;10.24;71.95
15884;BME280;8040;50.254;10.960;2023-04-21T01:40:34;97880.94;;;10.15;71.70
15884;BME280;8040;50.254;10.960;2023-04-21T01:43:00;97888.41;;;10.32;71.41
15884;BME280;8040;50.254;10.960;2023-04-21T01:45:25;97894.25;;;10.39;71.42
15884;BME280;8040;50.254;10.960;2023-04-21T01:47:51;97843.63;;;9.99;71.71
15884;BME280;8040;50.254;10.960;2023-04-21T01:50:16;97894.53;;;10.37;71.13
15884;BME280;8040;50.254;10.960;2023-04-21T01:52:42;97907.84;;;10.47;71.22
15884;BME280;8040;50.254;10.960;2023-04-21T01:55:08;97926.41;;;10.54;71.53
15884;BME280;8040;50.254;10.960;2023-04-21T01:57:33;97914.94;;;10.57;71.21
15884;BME280;8040;50.254;10.960;2023-04-21T02:00:00;97926.47;;;10.62;71.20
15884;BME280;8040;50.254;10.960;2023-04-21T02:02:25;97903.84;;;10.45;71.32
15884;BME280;8040;50.254;10.960;2023-04-21T02:04:51;97882.41;;;10.35;71.27
15884;BME280;8040;50.254;10.960;2023-04-21T02:07:16;97904.03;;;10.48;71.22
15884;BME280;8040;50.254;10.960;2023-04-21T02:09:42;97904.72;;;10.54;71.26
15884;BME280;8040;50.254;10.960;2023-04-21T02:12:07;97876.16;;;10.34;70.91
15884;BME280;8040;50.254;10.960;2023-04-21T02:14:33;97887.19;;;10.38;71.03
15884;BME280;8040;50.254;10.960;2023-04-21T02:17:00;97888.00;;;10.38;71.07
15884;BME280;8040;50.254;10.960;2023-04-21T02:19:27;97882.41;;;10.35;70.92
15884;BME280;8040;50.254;10.960;2023-04-21T02:21:53;97910.63;;;10.56;70.82
15884;BME280;8040;50.254;10.960;2023-04-21T02:24:18;97911.00;;;10.63;70.29
15884;BME280;8040;50.254;10.960;2023-04-21T02:26:44;97936.84;;;10.82;70.21
15884;BME280;8040;50.254;10.960;2023-04-21T02:29:09;97902.13;;;10.49;70.22
15884;BME280;8040;50.254;10.960;2023-04-21T02:31:35;97882.28;;;10.40;70.35
15884;BME280;8040;50.254;10.960;2023-04-21T02:34:00;97926.66;;;10.66;70.33
15884;BME280;8040;50.254;10.960;2023-04-21T02:36:26;97937.94;;;10.81;69.99
15884;BME280;8040;50.254;10.960;2023-04-21T02:38:51;97895.94;;;10.57;69.83
15884;BME280;8040;50.254;10.960;2023-04-21T02:41:16;97934.06;;;10.74;70.18
15884;BME280;8040;50.254;10.960;2023-04-21T02:43:42;97938.53;;;10.70;70.19
15884;BME280;8040;50.254;10.960;2023-04-21T02:46:08;97873.97;;;10.36;69.82
15884;BME280;8040;50.254;10.960;2023-04-21T02:48:34;97887.59;;;10.45;69.99
15884;BME280;8040;50.254;10.960;2023-04-21T02:51:00;97884.44;;;10.51;69.79
15884;BME280;8040;50.254;10.960;2023-04-21T02:53:25;97929.00;;;10.81;69.92
15884;BME280;8040;50.254;10.960;2023-04-21T02:55:51;97948.69;;;10.86;69.92
15884;BME280;8040;50.254;10.960;2023-04-21T02:58:16;97917.66;;;10.57;69.99
15884;BME280;8040;50.254;10.960;2023-04-21T03:00:42;97912.84;;;10.54;70.46
15884;BME280;8040;50.254;10.960;2023-04-21T03:03:08;97929.38;;;10.66;70.35
15884;BME280;8040;50.254;10.960;2023-04-21T03:05:33;97905.38;;;10.59;70.22
15884;BME280;8040;50.254;10.960;2023-04-21T03:08:00;97918.66;;;10.61;69.93
15884;BME280;8040;50.254;10.960;2023-04-21T03:10:26;97926.84;;;10.69;70.07
15884;BME280;8040;50.254;10.960;2023-04-21T03:12:51;97905.34;;;10.73;69.89
15884;BME280;8040;50.254;10.960;2023-04-21T03:15:18;97930.13;;;10.80;69.54
15884;BME280;8040;50.254;10.960;2023-04-21T03:17:44;97880.00;;;10.55;69.51
15884;BME280;8040;50.254;10.960;2023-04-21T03:20:09;97903.63;;;10.77;69.27
15884;BME280;8040;50.254;10.960;2023-04-21T03:22:37;97912.06;;;10.75;69.22
15884;BME280;8040;50.254;10.960;2023-04-21T03:25:02;97872.47;;;10.52;69.64
15884;BME280;8040;50.254;10.960;2023-04-21T03:27:29;97923.56;;;10.81;69.52
15884;BME280;8040;50.254;10.960;2023-04-21T03:29:55;97909.41;;;10.84;69.21
15884;BME280;8040;50.254;10.960;2023-04-21T03:32:20;97895.91;;;10.70;69.25
15884;BME280;8040;50.254;10.960;2023-04-21T03:34:45;97921.09;;;10.93;68.78
15884;BME280;8040;50.254;10.960;2023-04-21T03:37:11;97925.81;;;10.79;69.38
15884;BME280;8040;50.254;10.960;2023-04-21T03:39:36;97932.84;;;10.80;69.53
15884;BME280;8040;50.254;10.960;2023-04-21T03:42:02;97918.59;;;10.74;69.85
15884;BME280;8040;50.254;10.960;2023-04-21T03:44:29;97915.53;;;10.67;69.80
15884;BME280;8040;50.254;10.960;2023-04-21T03:46:55;97881.72;;;10.51;70.02
15884;BME280;8040;50.254;10.960;2023-04-21T03:49:21;97881.06;;;10.46;70.23
15884;BME280;8040;50.254;10.960;2023-04-21T03:51:47;97905.00;;;10.52;70.82
15884;BME280;8040;50.254;10.960;2023-04-21T03:54:12;97901.53;;;10.52;70.69
15884;BME280;8040;50.254;10.960;2023-04-21T03:56:38;97918.84;;;10.64;70.91
15884;BME280;8040;50.254;10.960;2023-04-21T03:59:03;97923.03;;;10.70;70.75
15884;BME280;8040;50.254;10.960;2023-04-21T04:01:29;97892.38;;;10.48;70.75
15884;BME280;8040;50.254;10.960;2023-04-21T04:03:56;97911.38;;;10.48;71.24
15884;BME280;8040;50.254;10.960;2023-04-21T04:06:21;97868.88;;;10.21;71.38
15884;BME280;8040;50.254;10.960;2023-04-21T04:08:48;97905.88;;;10.39;71.60
15884;BME280;8040;50.254;10.960;2023-04-21T04:11:14;97911.91;;;10.36;71.62
15884;BME280;8040;50.254;10.960;2023-04-21T04:13:39;97927.34;;;10.49;71.70
15884;BME280;8040;50.254;10.960;2023-04-21T04:16:05;97892.13;;;10.36;71.40
15884;BME280;8040;50.254;10.960;2023-04-21T04:18:31;97857.00;;;10.09;71.75
15884;BME280;8040;50.254;10.960;2023-04-21T04:20:56;97895.56;;;10.28;72.05
15884;BME280;8040;50.254;10.960;2023-04-21T04:23:21;97907.09;;;10.33;71.99
15884;BME280;8040;50.254;10.960;2023-04-21T04:25:47;97907.56;;;10.35;71.75
15884;BME280;8040;50.254;10.960;2023-04-21T04:28:13;97935.16;;;10.51;71.64
15884;BME280;8040;50.254;10.960;2023-04-21T04:30:40;97920.50;;;10.52;71.67
15884;BME280;8040;50.254;10.960;2023-04-21T04:33:06;97939.03;;;10.58;71.42
15884;BME280;8040;50.254;10.960;2023-04-21T04:35:34;97935.22;;;10.59;71.77
15884;BME280;8040;50.254;10.960;2023-04-21T04:37:59;97879.69;;;10.35;71.30
15884;BME280;8040;50.254;10.960;2023-04-21T04:40:25;97917.47;;;10.53;71.10
15884;BME280;8040;50.254;10.960;2023-04-21T04:42:50;97904.47;;;10.42;71.26
15884;BME280;8040;50.254;10.960;2023-04-21T04:45:16;97897.63;;;10.44;71.07
15884;BME280;8040;50.254;10.960;2023-04-21T04:47:42;97939.81;;;10.72;71.33
15884;BME280;8040;50.254;10.960;2023-04-21T04:50:07;97868.34;;;10.33;70.64
15884;BME280;8040;50.254;10.960;2023-04-21T04:52:33;97900.47;;;10.61;70.39
15884;BME280;8040;50.254;10.960;2023-04-21T04:54:59;97932.22;;;10.83;70.27
15884;BME280;8040;50.254;10.960;2023-04-21T04:57:24;97928.75;;;10.91;70.27
15884;BME280;8040;50.254;10.960;2023-04-21T04:59:54;97930.75;;;11.29;69.17
15884;BME280;8040;50.254;10.960;2023-04-21T05:02:20;97930.03;;;11.46;67.74
15884;BME280;8040;50.254;10.960;2023-04-21T05:04:46;97874.34;;;11.26;67.01
15884;BME280;8040;50.254;10.960;2023-04-21T05:07:12;97910.41;;;11.49;67.09
15884;BME280;8040;50.254;10.960;2023-04-21T05:09:37;97924.00;;;11.57;66.33
15884;BME280;8040;50.254;10.960;2023-04-21T05:12:03;97878.78;;;11.14;66.94
15884;BME280;8040;50.254;10.960;2023-04-21T05:14:28;97900.13;;;11.37;66.71
15884;BME280;8040;50.254;10.960;2023-04-21T05:16:53;97941.97;;;11.58;66.39
15884;BME280;8040;50.254;10.960;2023-04-21T05:19:20;97961.28;;;11.96;66.00
15884;BME280;8040;50.254;10.960;2023-04-21T05:21:45;97910.66;;;11.61;65.66
15884;BME280;8040;50.254;10.960;2023-04-21T05:24:11;97910.41;;;11.88;64.68
15884;BME280;8040;50.254;10.960;2023-04-21T05:26:36;97943.53;;;11.98;64.51
15884;BME280;8040;50.254;10.960;2023-04-21T05:29:02;97911.97;;;11.72;65.01
15884;BME280;8040;50.254;10.960;2023-04-21T05:31:27;97970.25;;;11.96;65.21
15884;BME280;8040;50.254;10.960;2023-04-21T05:33:52;97956.16;;;11.86;65.49
15884;BME280;8040;50.254;10.960;2023-04-21T05:36:18;97971.50;;;11.90;65.60
15884;BME280;8040;50.254;10.960;2023-04-21T05:38:48;97931.31;;;11.70;65.52
15884;BME280;8040;50.254;10.960;2023-04-21T05:41:14;97924.25;;;11.61;65.83
15884;BME280;8040;50.254;10.960;2023-04-21T05:43:40;97955.19;;;11.90;65.49
15884;BME280;8040;50.254;10.960;2023-04-21T05:46:08;97927.94;;;12.12;64.39
15884;BME280;8040;50.254;10.960;2023-04-21T05:48:34;97919.47;;;12.48;62.80
15884;BME280;8040;50.254;10.960;2023-04-21T05:51:09;97970.38;;;12.73;62.16
15884;BME280;8040;50.254;10.960;2023-04-21T05:53:37;97932.44;;;12.34;62.64
15884;BME280;8040;50.254;10.960;2023-04-21T05:56:03;97911.91;;;12.11;63.30
15884;BME280;8040;50.254;10.960;2023-04-21T05:58:28;97917.34;;;12.02;63.51
15884;BME280;8040;50.254;10.960;2023-04-21T06:00:54;97957.53;;;12.31;63.96
15884;BME280;8040;50.254;10.960;2023-04-21T06:03:19;97943.25;;;12.08;63.65
15884;BME280;8040;50.254;10.960;2023-04-21T06:05:45;97945.19;;;12.16;64.10
15884;BME280;8040;50.254;10.960;2023-04-21T06:08:11;97974.13;;;12.21;63.96
15884;BME280;8040;50.254;10.960;2023-04-21T06:10:37;97878.88;;;11.70;64.59
15884;BME280;8040;50.254;10.960;2023-04-21T06:13:02;97945.31;;;12.11;64.21
15884;BME280;8040;50.254;10.960;2023-04-21T06:15:28;97916.66;;;11.97;64.31
15884;BME280;8040;50.254;10.960;2023-04-21T06:17:53;97911.69;;;11.82;64.23
15884;BME280;8040;50.254;10.960;2023-04-21T06:20:23;97942.09;;;12.01;64.54
15884;BME280;8040;50.254;10.960;2023-04-21T06:22:48;97920.78;;;11.77;64.73
15884;BME280;8040;50.254;10.960;2023-04-21T06:25:14;97945.09;;;11.82;65.17
15884;BME280;8040;50.254;10.960;2023-04-21T06:27:40;97907.53;;;11.45;65.57
15884;BME280;8040;50.254;10.960;2023-04-21T06:30:07;97921.63;;;11.56;65.91
15884;BME280;8040;50.254;10.960;2023-04-21T06:32:32;97853.75;;;11.25;65.62
15884;BME280;8040;50.254;10.960;2023-04-21T06:34:58;97949.63;;;11.95;64.88
15884;BME280;8040;50.254;10.960;2023-04-21T06:37:23;97926.34;;;11.72;65.11
15884;BME280;8040;50.254;10.960;2023-04-21T06:40:05;97967.22;;;11.98;65.26
15884;BME280;8040;50.254;10.960;2023-04-21T06:43:03;97862.75;;;11.34;65.23
15884;BME280;8040;50.254;10.960;2023-04-21T06:45:44;97895.59;;;11.55;65.49
15884;BME280;8040;50.254;10.960;2023-04-21T06:48:14;97943.19;;;11.91;64.88
15884;BME280;8040;50.254;10.960;2023-04-21T06:50:39;97960.66;;;11.99;65.12
15884;BME280;8040;50.254;10.960;2023-04-21T06:53:05;97904.31;;;11.74;65.17
15884;BME280;8040;50.254;10.960;2023-04-21T06:55:30;97927.84;;;11.87;64.81
15884;BME280;8040;50.254;10.960;2023-04-21T06:57:59;97965.47;;;12.10;64.58
15884;BME280;8040;50.254;10.960;2023-04-21T07:00:25;97943.56;;;12.07;64.29
15884;BME280;8040;50.254;10.960;2023-04-21T07:02:50;97935.13;;;12.17;64.08
15884;BME280;8040;50.254;10.960;2023-04-21T07:05:16;97943.47;;;12.29;63.47
15884;BME280;8040;50.254;10.960;2023-04-21T07:07:41;97901.16;;;11.89;63.17
15884;BME280;8040;50.254;10.960;2023-04-21T07:10:07;97943.13;;;12.22;63.83
15884;BME280;8040;50.254;10.960;2023-04-21T07:12:33;97918.81;;;12.17;63.59
15884;BME280;8040;50.254;10.960;2023-04-21T07:14:58;97921.06;;;12.32;63.17
15884;BME280;8040;50.254;10.960;2023-04-21T07:17:23;97871.31;;;12.14;62.68
15884;BME280;8040;50.254;10.960;2023-04-21T07:19:52;97899.63;;;12.30;61.87
15884;BME280;8040;50.254;10.960;2023-04-21T07:22:17;97938.53;;;12.56;62.33
15884;BME280;8040;50.254;10.960;2023-04-21T07:24:42;97896.44;;;12.45;61.62
15884;BME280;8040;50.254;10.960;2023-04-21T07:27:08;97964.94;;;12.90;61.45
15884;BME280;8040;50.254;10.960;2023-04-21T07:29:33;97918.84;;;12.51;61.78
15884;BME280;8040;50.254;10.960;2023-04-21T07:32:00;97949.09;;;12.66;61.63
15884;BME280;8040;50.254;10.960;2023-04-21T07:34:26;97963.97;;;12.86;61.61
15884;BME280;8040;50.254;10.960;2023-04-21T07:36:53;97945.06;;;12.64;61.90
15884;BME280;8040;50.254;10.960;2023-04-21T07:39:19;97928.28;;;12.62;62.53
15884;BME280;8040;50.254;10.960;2023-04-21T07:41:44;97934.03;;;12.77;61.30
15884;BME280;8040;50.254;10.960;2023-04-21T07:44:10;97896.59;;;12.66;60.47
15884;BME280;8040;50.254;10.960;2023-04-21T07:46:35;97943.53;;;12.97;60.81
15884;BME280;8040;50.254;10.960;2023-04-21T07:49:01;97926.69;;;12.95;60.81
15884;BME280;8040;50.254;10.960;2023-04-21T07:51:28;97919.16;;;12.92;60.38
15884;BME280;8040;50.254;10.960;2023-04-21T07:53:54;97925.88;;;12.77;60.67
15884;BME280;8040;50.254;10.960;2023-04-21T07:56:20;97891.94;;;12.58;60.82
15884;BME280;8040;50.254;10.960;2023-04-21T07:58:45;97916.59;;;12.78;60.31
15884;BME280;8040;50.254;10.960;2023-04-21T08:01:11;97859.16;;;12.46;60.44
15884;BME280;8040;50.254;10.960;2023-04-21T08:03:36;97862.97;;;12.53;60.09
15884;BME280;8040;50.254;10.960;2023-04-21T08:06:02;97901.53;;;12.81;58.96
15884;BME280;8040;50.254;10.960;2023-04-21T08:08:28;97914.69;;;12.96;59.06
15884;BME280;8040;50.254;10.960;2023-04-21T08:10:53;97860.91;;;12.67;58.62
15884;BME280;8040;50.254;10.960;2023-04-21T08:13:19;97941.06;;;13.38;58.71
15884;BME280;8040;50.254;10.960;2023-04-21T08:15:49;97901.34;;;13.28;57.73
15884;BME280;8040;50.254;10.960;2023-04-21T08:18:15;97943.69;;;13.55;57.34
15884;BME280;8040;50.254;10.960;2023-04-21T08:20:42;97886.25;;;13.31;57.62
15884;BME280;8040;50.254;10.960;2023-04-21T08:23:08;97909.53;;;13.57;56.82
15884;BME280;8040;50.254;10.960;2023-04-21T08:25:33;97909.53;;;13.57;56.67
15884;BME280;8040;50.254;10.960;2023-04-21T08:27:58;97879.31;;;13.42;55.78
15884;BME280;8040;50.254;10.960;2023-04-21T08:30:25;97873.22;;;13.45;56.09
15884;BME280;8040;50.254;10.960;2023-04-21T08:32:51;97903.44;;;13.69;55.63
15884;BME280;8040;50.254;10.960;2023-04-21T08:35:16;97945.84;;;13.87;56.50
15884;BME280;8040;50.254;10.960;2023-04-21T08:37:42;97910.38;;;13.58;56.62
15884;BME280;8040;50.254;10.960;2023-04-21T08:40:08;97920.72;;;13.73;57.34
15884;BME280;8040;50.254;10.960;2023-04-21T08:42:34;97932.22;;;13.87;57.27
15884;BME280;8040;50.254;10.960;2023-04-21T08:45:01;97929.00;;;13.85;56.74
15884;BME280;8040;50.254;10.960;2023-04-21T08:47:27;97865.31;;;13.60;56.80
15884;BME280;8040;50.254;10.960;2023-04-21T08:49:53;97924.50;;;14.18;56.79
15884;BME280;8040;50.254;10.960;2023-04-21T08:52:19;97908.69;;;14.03;55.64
15884;BME280;8040;50.254;10.960;2023-04-21T08:54:45;97924.09;;;14.07;56.04
15884;BME280;8040;50.254;10.960;2023-04-21T08:57:11;97911.91;;;14.05;55.87
15884;BME280;8040;50.254;10.960;2023-04-21T08:59:36;97923.41;;;14.19;55.98
15884;BME280;8040;50.254;10.960;2023-04-21T09:02:16;97924.44;;;14.35;55.65
15884;BME280;8040;50.254;10.960;2023-04-21T09:04:47;97934.28;;;14.48;55.77
15884;BME280;8040;50.254;10.960;2023-04-21T09:07:30;97940.88;;;14.67;54.89
15884;BME280;8040;50.254;10.960;2023-04-21T09:09:57;97923.63;;;14.75;54.70
15884;BME280;8040;50.254;10.960;2023-04-21T09:12:24;97931.06;;;14.87;54.58
15884;BME280;8040;50.254;10.960;2023-04-21T09:14:50;97871.97;;;14.70;53.51
15884;BME280;8040;50.254;10.960;2023-04-21T09:17:16;97922.53;;;15.09;53.45
15884;BME280;8040;50.254;10.960;2023-04-21T09:19:42;97916.09;;;15.25;53.25
15884;BME280;8040;50.254;10.960;2023-04-21T09:22:08;97882.25;;;15.18;53.42
15884;BME280;8040;50.254;10.960;2023-04-21T09:24:33;97921.41;;;15.42;52.67
15884;BME280;8040;50.254;10.960;2023-04-21T09:27:02;97887.94;;;15.25;52.52
15884;BME280;8040;50.254;10.960;2023-04-21T09:29:28;97878.16;;;15.24;52.77
15884;BME280;8040;50.254;10.960;2023-04-21T09:31:54;97893.25;;;15.42;52.50
15884;BME280;8040;50.254;10.960;2023-04-21T09:34:22;97915.41;;;15.85;51.41
15884;BME280;8040;50.254;10.960;2023-04-21T09:37:02;97893.19;;;15.86;49.68
15884;BME280;8040;50.254;10.960;2023-04-21T09:44:37;97918.84;;;16.06;47.74
15884;BME280;8040;50.254;10.960;2023-04-21T09:47:09;97850.38;;;15.78;48.05
15884;BME280;8040;50.254;10.960;2023-04-21T09:49:37;97877.72;;;15.90;47.16
15884;BME280;8040;50.254;10.960;2023-04-21T09:52:09;97883.28;;;15.94;47.00
15884;BME280;8040;50.254;10.960;2023-04-21T09:54:39;97802.41;;;15.57;47.33
15884;BME280;8040;50.254;10.960;2023-04-21T10:04:10;97872.19;;;16.38;47.03
15884;BME280;8040;50.254;10.960;2023-04-21T10:07:15;97872.94;;;16.62;46.81
15884;BME280;8040;50.254;10.960;2023-04-21T10:13:47;97899.22;;;17.06;45.21
15884;BME280;8040;50.254;10.960;2023-04-21T10:16:15;97797.34;;;16.46;45.95
15884;BME280;8040;50.254;10.960;2023-04-21T10:18:43;97819.09;;;16.82;45.73
15884;BME280;8040;50.254;10.960;2023-04-21T10:21:30;97871.06;;;17.21;45.19
15884;BME280;8040;50.254;10.960;2023-04-21T10:24:00;97855.97;;;17.27;45.62
15884;BME280;8040;50.254;10.960;2023-04-21T10:26:34;97864.06;;;17.51;44.71
15884;BME280;8040;50.254;10.960;2023-04-21T10:29:07;97792.78;;;17.08;44.64
15884;BME280;8040;50.254;10.960;2023-04-21T10:36:41;97816.94;;;17.34;43.68
15884;BME280;8040;50.254;10.960;2023-04-21T10:39:07;97842.13;;;17.51;43.97
15884;BME280;8040;50.254;10.960;2023-04-21T10:41:33;97820.13;;;17.36;43.72
15884;BME280;8040;50.254;10.960;2023-04-21T10:44:20;97801.09;;;17.39;43.44
15884;BME280;8040;50.254;10.960;2023-04-21T10:49:36;97849.03;;;18.11;43.33
15884;BME280;8040;50.254;10.960;2023-04-21T10:58:36;97747.28;;;17.50;43.18
15884;BME280;8040;50.254;10.960;2023-04-21T11:06:14;97807.13;;;17.79;41.73
15884;BME280;8040;50.254;10.960;2023-04-21T11:08:56;97808.50;;;18.04;42.43
15884;BME280;8040;50.254;10.960;2023-04-21T11:11:22;97818.44;;;18.28;42.60
15884;BME280;8040;50.254;10.960;2023-04-21T11:13:48;97767.31;;;18.39;43.11
15884;BME280;8040;50.254;10.960;2023-04-21T11:16:16;97760.06;;;18.50;41.50
15884;BME280;8040;50.254;10.960;2023-04-21T11:18:44;97799.88;;;18.78;40.41
15884;BME280;8040;50.254;10.960;2023-04-21T11:21:12;97773.59;;;18.39;39.62
15884;BME280;8040;50.254;10.960;2023-04-21T11:23:41;97763.97;;;18.30;39.62
15884;BME280;8040;50.254;10.960;2023-04-21T11:26:06;97816.25;;;18.71;40.03
15884;BME280;8040;50.254;10.960;2023-04-21T11:28:32;97806.81;;;18.91;40.52
15884;BME280;8040;50.254;10.960;2023-04-21T11:30:57;97741.34;;;18.74;40.54
15884;BME280;8040;50.254;10.960;2023-04-21T11:33:29;97787.22;;;19.15;40.74
15884;BME280;8040;50.254;10.960;2023-04-21T11:35:56;97775.25;;;19.23;39.40
15884;BME280;8040;50.254;10.960;2023-04-21T11:38:25;97769.91;;;19.11;38.41
15884;BME280;8040;50.254;10.960;2023-04-21T11:40:51;97768.84;;;19.19;38.99
15884;BME280;8040;50.254;10.960;2023-04-21T11:43:19;97784.06;;;19.13;37.69
15884;BME280;8040;50.254;10.960;2023-04-21T11:45:48;97751.94;;;18.95;38.00
15884;BME280;8040;50.254;10.960;2023-04-21T11:48:14;97776.28;;;18.96;37.90
15884;BME280;8040;50.254;10.960;2023-04-21T11:50:46;97779.72;;;18.90;38.24
15884;BME280;8040;50.254;10.960;2023-04-21T11:53:13;97732.22;;;18.70;38.63
15884;BME280;8040;50.254;10.960;2023-04-21T11:55:45;97781.63;;;19.08;38.33
15884;BME280;8040;50.254;10.960;2023-04-21T11:58:10;97801.84;;;18.97;38.42
15884;BME280;8040;50.254;10.960;2023-04-21T12:00:42;97764.19;;;18.59;37.73
15884;BME280;8040;50.254;10.960;2023-04-21T12:03:08;97756.78;;;18.41;38.06
15884;BME280;8040;50.254;10.960;2023-04-21T12:05:35;97770.72;;;18.32;38.07
15884;BME280;8040;50.254;10.960;2023-04-21T12:08:01;97794.88;;;18.61;38.37
15884;BME280;8040;50.254;10.960;2023-04-21T12:10:28;97773.19;;;18.56;38.28
15884;BME280;8040;50.254;10.960;2023-04-21T12:12:55;97785.72;;;18.76;37.75
15884;BME280;8040;50.254;10.960;2023-04-21T12:15:21;97757.34;;;18.91;37.63
15884;BME280;8040;50.254;10.960;2023-04-21T12:17:48;97792.09;;;19.22;37.71
15884;BME280;8040;50.254;10.960;2023-04-21T12:20:15;97780.56;;;18.94;35.53
15884;BME280;8040;50.254;10.960;2023-04-21T12:22:42;97789.25;;;18.96;35.77
15884;BME280;8040;50.254;10.960;2023-04-21T12:25:07;97752.91;;;18.64;35.89
15884;BME280;8040;50.254;10.960;2023-04-21T12:27:33;97737.59;;;18.63;36.09
15884;BME280;8040;50.254;10.960;2023-04-21T12:29:59;97744.81;;;18.71;35.59
15884;BME280;8040;50.254;10.960;2023-04-21T12:32:24;97773.13;;;18.94;35.69
15884;BME280;8040;50.254;10.960;2023-04-21T12:34:50;97765.75;;;18.98;35.89
15884;BME280;8040;50.254;10.960;2023-04-21T12:37:16;97757.56;;;19.02;35.73
15884;BME280;8040;50.254;10.960;2023-04-21T12:39:42;97731.97;;;19.20;36.94
15884;BME280;8040;50.254;10.960;2023-04-21T12:42:07;97728.34;;;19.39;37.02
15884;BME280;8040;50.254;10.960;2023-04-21T12:44:33;97771.50;;;19.83;36.95
15884;BME280;8040;50.254;10.960;2023-04-21T12:46:59;97780.81;;;20.01;36.05
15884;BME280;8040;50.254;10.960;2023-04-21T12:49:24;97740.06;;;19.84;35.24
15884;BME280;8040;50.254;10.960;2023-04-21T12:51:50;97728.09;;;19.47;34.63
15884;BME280;8040;50.254;10.960;2023-04-21T12:54:26;97711.97;;;19.46;34.91
15884;BME280;8040;50.254;10.960;2023-04-21T12:56:51;97728.38;;;19.65;34.58
15884;BME280;8040;50.254;10.960;2023-04-21T12:59:17;97674.91;;;19.66;37.50
15884;BME280;8040;50.254;10.960;2023-04-21T13:01:42;97680.56;;;19.76;36.16
15884;BME280;8040;50.254;10.960;2023-04-21T13:04:08;97761.88;;;20.55;35.70
15884;BME280;8040;50.254;10.960;2023-04-21T13:06:39;97708.88;;;20.32;36.39
15884;BME280;8040;50.254;10.960;2023-04-21T13:09:04;97752.56;;;20.67;35.84
15884;BME280;8040;50.254;10.960;2023-04-21T13:11:33;97708.38;;;20.56;36.17
15884;BME280;8040;50.254;10.960;2023-04-21T13:14:40;97754.06;;;20.94;35.81
15884;BME280;8040;50.254;10.960;2023-04-21T13:17:05;97686.78;;;20.65;36.59
15884;BME280;8040;50.254;10.960;2023-04-21T13:19:32;97741.50;;;20.96;33.83
15884;BME280;8040;50.254;10.960;2023-04-21T13:21:58;97730.75;;;20.88;33.31
15884;BME280;8040;50.254;10.960;2023-04-21T13:24:26;97736.63;;;20.86;34.06
15884;BME280;8040;50.254;10.960;2023-04-21T13:27:01;97751.88;;;21.10;35.56
15884;BME280;8040;50.254;10.960;2023-04-21T13:29:27;97676.38;;;20.85;34.67
15884;BME280;8040;50.254;10.960;2023-04-21T13:31:59;97744.22;;;21.33;34.24
15884;BME280;8040;50.254;10.960;2023-04-21T13:34:43;97670.69;;;21.07;34.37